Time;durP1;ratioP1;P1;durP2;ratioP2;P2;SDS_P1;SDS_P2;PMS_P1;PMS_P2;Temp;Humidity;BMP_temperature;BMP_pressure;BME280_temperature;BME280_humidity;BME280_pressure;Samples;Min_cycle;Max_cycle;Signal;HPM_P1;HPM_P2
2023/10/29 00:02:24;;;;;;;7.78;2.85;;;;;;;;;;5037937;28;20045;-73
2023/10/29 00:04:55;;;;;;;4.70;2.33;;;;;;;;;;5039735;28;20051;-72
2023/10/29 00:07:26;;;;;;;9.52;2.65;;;;;;;;;;5044918;28;20060;-72
2023/10/29 00:09:56;;;;;;;7.60;3.00;;;;;;;;;;5026677;28;20052;-72
2023/10/29 00:12:27;;;;;;;6.85;2.63;;;;;;;;;;5027030;28;20430;-73
2023/10/29 00:14:59;;;;;;;10.35;2.47;;;;;;;;;;5026720;28;20036;-73
2023/10/29 00:17:30;;;;;;;7.53;3.33;;;;;;;;;;5044859;28;20040;-73
2023/10/29 00:20:03;;;;;;;4.38;2.42;;;;;;;;;;5060615;28;20049;-72
2023/10/29 00:22:34;;;;;;;8.45;3.05;;;;;;;;;;5063330;28;20032;-72
2023/10/29 00:25:04;;;;;;;4.55;2.53;;;;;;;;;;5064236;28;20344;-73
2023/10/29 00:27:35;;;;;;;10.80;3.30;;;;;;;;;;5061621;28;20041;-73
2023/10/29 00:30:06;;;;;;;8.02;2.55;;;;;;;;;;5063937;28;20048;-74
2023/10/29 00:32:38;;;;;;;6.25;2.75;;;;;;;;;;5029420;28;20498;-74
2023/10/29 00:35:09;;;;;;;8.07;3.03;;;;;;;;;;5042748;28;20040;-73
2023/10/29 00:37:40;;;;;;;8.35;2.90;;;;;;;;;;5063918;28;20055;-73
2023/10/29 00:40:11;;;;;;;8.18;3.13;;;;;;;;;;5062019;28;20040;-73
2023/10/29 00:42:41;;;;;;;8.48;3.17;;;;;;;;;;5063665;28;20049;-73
2023/10/29 00:45:13;;;;;;;8.68;3.65;;;;;;;;;;5040829;28;20414;-74
2023/10/29 00:47:43;;;;;;;9.30;2.85;;;;;;;;;;5063984;28;20032;-72
2023/10/29 00:50:15;;;;;;;7.40;3.10;;;;;;;;;;5046275;28;20564;-74
2023/10/29 00:52:46;;;;;;;4.80;2.78;;;;;;;;;;5064038;28;20041;-73
2023/10/29 00:55:18;;;;;;;5.78;2.97;;;;;;;;;;5064387;28;20040;-73
2023/10/29 00:57:49;;;;;;;5.68;2.95;;;;;;;;;;5061159;28;20502;-73
2023/10/29 01:00:21;;;;;;;5.50;2.45;;;;;;;;;;5026332;28;20060;-74
2023/10/29 01:02:51;;;;;;;6.72;2.58;;;;;;;;;;5043838;28;20055;-73
2023/10/29 01:05:22;;;;;;;6.53;2.83;;;;;;;;;;5044644;28;20381;-74
2023/10/29 01:07:54;;;;;;;14.25;3.05;;;;;;;;;;5044332;28;20380;-75
2023/10/29 01:10:24;;;;;;;8.38;3.05;;;;;;;;;;5025338;28;20060;-74
2023/10/29 01:12:55;;;;;;;6.10;2.85;;;;;;;;;;5044180;28;20041;-74
2023/10/29 01:15:26;;;;;;;6.32;2.72;;;;;;;;;;5043523;28;20045;-73
2023/10/29 01:17:57;;;;;;;10.98;2.95;;;;;;;;;;5043751;28;20049;-73
2023/10/29 01:20:28;;;;;;;6.70;2.67;;;;;;;;;;5044214;28;20041;-74
2023/10/29 01:22:58;;;;;;;5.07;2.63;;;;;;;;;;5043855;28;20522;-74
2023/10/29 01:25:29;;;;;;;7.45;3.22;;;;;;;;;;5044098;28;20041;-75
2023/10/29 01:28:00;;;;;;;6.32;2.95;;;;;;;;;;5024425;28;20170;-75
2023/10/29 01:30:30;;;;;;;7.75;2.78;;;;;;;;;;5025615;28;20045;-74
2023/10/29 01:33:01;;;;;;;5.40;2.60;;;;;;;;;;5043429;28;20408;-74
2023/10/29 01:35:32;;;;;;;4.18;2.25;;;;;;;;;;5042328;28;20045;-75
2023/10/29 01:38:03;;;;;;;6.80;2.50;;;;;;;;;;5042705;28;20056;-74
2023/10/29 01:40:33;;;;;;;5.85;2.58;;;;;;;;;;5042846;28;20049;-73
2023/10/29 01:43:03;;;;;;;5.95;2.58;;;;;;;;;;5043293;28;20055;-75
2023/10/29 01:45:37;;;;;;;7.13;2.65;;;;;;;;;;5043404;28;20036;-74
2023/10/29 01:48:08;;;;;;;6.50;2.50;;;;;;;;;;5043476;28;20052;-74
2023/10/29 01:50:38;;;;;;;5.80;2.70;;;;;;;;;;5043192;28;20045;-74
2023/10/29 01:53:08;;;;;;;5.95;2.40;;;;;;;;;;5025272;28;20514;-74
2023/10/29 01:55:39;;;;;;;3.90;2.40;;;;;;;;;;5043301;28;20045;-74
2023/10/29 01:58:10;;;;;;;9.40;3.50;;;;;;;;;;5024854;28;20044;-73
2023/10/29 02:00:40;;;;;;;6.30;2.88;;;;;;;;;;5024974;28;20056;-74
2023/10/29 02:03:11;;;;;;;8.48;2.92;;;;;;;;;;5043397;28;20398;-72
2023/10/29 02:05:42;;;;;;;5.03;3.28;;;;;;;;;;5043902;28;20041;-70
2023/10/29 02:08:13;;;;;;;6.15;3.13;;;;;;;;;;5042816;28;20045;-71
2023/10/29 02:10:43;;;;;;;10.27;3.55;;;;;;;;;;5023937;28;20492;-75
2023/10/29 02:13:14;;;;;;;5.93;3.17;;;;;;;;;;5042906;28;20033;-71
2023/10/29 02:15:45;;;;;;;6.53;3.03;;;;;;;;;;5042892;28;20423;-71
2023/10/29 02:18:18;;;;;;;8.15;2.90;;;;;;;;;;5024857;28;20048;-73
2023/10/29 02:20:48;;;;;;;5.50;3.45;;;;;;;;;;5043441;28;20041;-76
2023/10/29 02:23:19;;;;;;;7.05;3.42;;;;;;;;;;5025454;28;20503;-72
2023/10/29 02:25:50;;;;;;;6.72;2.97;;;;;;;;;;5043035;28;20048;-74
2023/10/29 02:28:20;;;;;;;6.32;2.83;;;;;;;;;;5041928;28;20037;-70
2023/10/29 02:30:51;;;;;;;4.07;2.65;;;;;;;;;;5043143;28;20048;-74
2023/10/29 02:33:22;;;;;;;6.82;3.10;;;;;;;;;;5043013;28;20041;-76
2023/10/29 02:35:53;;;;;;;7.10;2.90;;;;;;;;;;5025056;28;20052;-73
2023/10/29 02:38:25;;;;;;;6.10;2.65;;;;;;;;;;5024285;28;20045;-74
2023/10/29 02:40:55;;;;;;;6.68;2.83;;;;;;;;;;5043072;28;20041;-74
2023/10/29 02:43:26;;;;;;;4.85;2.75;;;;;;;;;;5042744;28;20045;-73
2023/10/29 02:45:57;;;;;;;6.88;3.17;;;;;;;;;;5042854;28;20056;-73
2023/10/29 02:48:28;;;;;;;5.35;2.80;;;;;;;;;;5024020;28;20044;-73
2023/10/29 02:50:59;;;;;;;6.22;2.80;;;;;;;;;;5042636;28;20550;-74
2023/10/29 02:53:31;;;;;;;5.55;2.72;;;;;;;;;;5042502;28;20047;-73
2023/10/29 02:56:03;;;;;;;6.25;3.30;;;;;;;;;;5042924;28;20067;-73
2023/10/29 02:58:35;;;;;;;6.25;3.03;;;;;;;;;;5025226;28;20045;-74
2023/10/29 03:01:09;;;;;;;6.20;3.08;;;;;;;;;;5023048;28;20049;-73
2023/10/29 03:03:40;;;;;;;7.55;3.00;;;;;;;;;;5041982;28;20650;-74
2023/10/29 03:06:11;;;;;;;7.95;2.90;;;;;;;;;;5023664;28;20045;-73
2023/10/29 03:08:42;;;;;;;4.93;2.90;;;;;;;;;;5042157;28;20056;-73
2023/10/29 03:11:13;;;;;;;6.32;3.08;;;;;;;;;;5042821;28;20040;-72
2023/10/29 03:13:43;;;;;;;6.60;3.15;;;;;;;;;;5024045;28;20048;-73
2023/10/29 03:16:14;;;;;;;6.78;3.25;;;;;;;;;;5043169;28;20037;-73
2023/10/29 03:18:47;;;;;;;5.47;2.90;;;;;;;;;;5023634;28;20057;-78
2023/10/29 03:21:17;;;;;;;9.75;3.30;;;;;;;;;;5041763;28;20033;-71
2023/10/29 03:23:48;;;;;;;4.72;2.83;;;;;;;;;;5042082;28;20055;-70
2023/10/29 03:26:19;;;;;;;7.88;3.25;;;;;;;;;;5041784;28;20049;-71
2023/10/29 03:28:50;;;;;;;10.68;2.97;;;;;;;;;;5023351;28;20049;-71
2023/10/29 03:31:23;;;;;;;9.43;3.15;;;;;;;;;;5042544;28;20502;-70
2023/10/29 03:33:53;;;;;;;5.15;2.55;;;;;;;;;;5041783;28;20053;-72
2023/10/29 03:36:24;;;;;;;5.18;2.67;;;;;;;;;;5041852;28;20495;-72
2023/10/29 03:38:55;;;;;;;7.78;3.33;;;;;;;;;;5042146;28;20487;-71
2023/10/29 03:41:25;;;;;;;15.50;3.17;;;;;;;;;;5045043;28;20047;-71
2023/10/29 03:43:56;;;;;;;6.13;3.22;;;;;;;;;;5027444;28;20049;-70
2023/10/29 03:46:27;;;;;;;5.22;3.20;;;;;;;;;;5047049;28;20052;-71
2023/10/29 03:48:58;;;;;;;8.60;4.80;;;;;;;;;;5046743;28;20041;-71
2023/10/29 03:51:28;;;;;;;6.63;3.50;;;;;;;;;;5046375;28;20041;-71
2023/10/29 03:53:59;;;;;;;6.07;3.00;;;;;;;;;;5045849;28;20048;-71
2023/10/29 03:56:31;;;;;;;5.20;2.90;;;;;;;;;;5045818;28;20399;-75
2023/10/29 03:59:02;;;;;;;5.82;3.08;;;;;;;;;;5045855;28;20041;-71
2023/10/29 04:01:33;;;;;;;7.75;3.50;;;;;;;;;;5045191;28;20044;-71
2023/10/29 04:04:04;;;;;;;6.53;3.55;;;;;;;;;;5045327;28;20056;-71
2023/10/29 04:06:35;;;;;;;6.50;3.38;;;;;;;;;;5045879;28;20056;-71
2023/10/29 04:09:05;;;;;;;5.45;2.80;;;;;;;;;;5045334;28;20071;-72
2023/10/29 04:11:37;;;;;;;8.05;3.08;;;;;;;;;;5045268;28;20041;-71
2023/10/29 04:14:07;;;;;;;7.90;3.22;;;;;;;;;;5045595;28;20041;-73
2023/10/29 04:16:37;;;;;;;9.02;3.33;;;;;;;;;;5026614;28;20788;-71
2023/10/29 04:19:08;;;;;;;11.70;3.28;;;;;;;;;;5044737;28;20423;-73
2023/10/29 04:21:38;;;;;;;6.68;3.13;;;;;;;;;;5027917;28;20053;-74
2023/10/29 04:24:09;;;;;;;4.60;2.63;;;;;;;;;;5045250;28;20047;-72
2023/10/29 04:26:40;;;;;;;6.38;3.00;;;;;;;;;;5045113;28;20494;-71
2023/10/29 04:29:10;;;;;;;5.68;3.10;;;;;;;;;;5044749;28;20045;-71
2023/10/29 04:31:41;;;;;;;8.48;3.50;;;;;;;;;;5045313;28;20048;-72
2023/10/29 04:34:13;;;;;;;6.93;3.20;;;;;;;;;;5026513;28;20052;-72
2023/10/29 04:36:48;;;;;;;6.53;3.47;;;;;;;;;;5045244;28;20044;-71
2023/10/29 04:39:19;;;;;;;5.60;3.55;;;;;;;;;;5045045;28;20037;-71
2023/10/29 04:41:51;;;;;;;7.75;4.13;;;;;;;;;;5025753;28;20514;-70
2023/10/29 04:44:21;;;;;;;7.55;3.78;;;;;;;;;;5045146;28;20399;-72
2023/10/29 04:46:51;;;;;;;8.50;3.33;;;;;;;;;;5044966;28;20414;-71
2023/10/29 04:49:21;;;;;;;5.72;3.28;;;;;;;;;;5044619;28;20044;-71
2023/10/29 04:51:52;;;;;;;6.28;3.20;;;;;;;;;;5044371;28;20048;-72
2023/10/29 04:54:23;;;;;;;8.15;3.03;;;;;;;;;;5044867;28;20045;-72
2023/10/29 04:56:53;;;;;;;5.88;3.35;;;;;;;;;;5044868;28;20549;-71
2023/10/29 04:59:24;;;;;;;7.32;3.35;;;;;;;;;;5044791;28;20049;-72
2023/10/29 05:01:54;;;;;;;9.75;3.03;;;;;;;;;;5044547;28;20033;-72
2023/10/29 05:04:25;;;;;;;6.53;3.38;;;;;;;;;;5044259;28;20056;-71
2023/10/29 05:06:54;;;;;;;8.05;3.47;;;;;;;;;;5044839;28;20045;-71
2023/10/29 05:09:25;;;;;;;6.30;3.72;;;;;;;;;;5044748;28;20045;-70
2023/10/29 05:11:55;;;;;;;6.38;3.58;;;;;;;;;;5044481;28;20041;-71
2023/10/29 05:14:25;;;;;;;5.60;3.63;;;;;;;;;;5026694;28;20041;-72
2023/10/29 05:16:57;;;;;;;7.82;3.80;;;;;;;;;;5043768;28;20048;-72
2023/10/29 05:19:28;;;;;;;10.15;3.35;;;;;;;;;;5043950;28;20053;-72
2023/10/29 05:21:58;;;;;;;5.60;3.60;;;;;;;;;;5044512;28;20304;-73
2023/10/29 05:24:29;;;;;;;6.15;3.42;;;;;;;;;;5044301;28;20076;-73
2023/10/29 05:26:59;;;;;;;7.75;3.25;;;;;;;;;;5043845;28;20048;-72
2023/10/29 05:29:32;;;;;;;6.07;3.13;;;;;;;;;;5043491;28;20052;-73
2023/10/29 05:32:05;;;;;;;8.82;3.65;;;;;;;;;;5043797;28;20052;-72
2023/10/29 05:34:36;;;;;;;6.30;3.20;;;;;;;;;;5043232;28;20053;-72
2023/10/29 05:37:08;;;;;;;7.03;3.22;;;;;;;;;;5043893;28;20045;-72
2023/10/29 05:39:37;;;;;;;9.20;3.50;;;;;;;;;;5043711;28;20041;-73
2023/10/29 05:42:09;;;;;;;5.63;2.90;;;;;;;;;;5044212;28;20471;-72
2023/10/29 05:44:39;;;;;;;5.32;3.45;;;;;;;;;;5043894;28;20483;-73
2023/10/29 05:47:10;;;;;;;6.43;3.38;;;;;;;;;;5043371;28;20056;-74
2023/10/29 05:49:41;;;;;;;7.65;3.40;;;;;;;;;;5043377;28;20446;-73
2023/10/29 05:52:11;;;;;;;7.30;3.40;;;;;;;;;;5043124;28;20049;-73
2023/10/29 05:54:42;;;;;;;7.40;3.63;;;;;;;;;;5043313;28;20060;-72
2023/10/29 05:57:13;;;;;;;6.30;3.45;;;;;;;;;;5043684;28;20048;-73
2023/10/29 05:59:43;;;;;;;5.97;3.28;;;;;;;;;;5043245;28;20604;-73
2023/10/29 06:02:13;;;;;;;8.57;3.60;;;;;;;;;;5043317;28;20498;-73
2023/10/29 06:04:44;;;;;;;12.38;3.95;;;;;;;;;;5042483;28;20044;-73
2023/10/29 06:07:15;;;;;;;6.90;3.65;;;;;;;;;;5042950;28;20040;-73
2023/10/29 06:09:48;;;;;;;6.75;3.38;;;;;;;;;;5043181;28;20487;-71
2023/10/29 06:12:18;;;;;;;6.55;3.55;;;;;;;;;;5043640;28;20411;-73
2023/10/29 06:14:49;;;;;;;9.00;3.70;;;;;;;;;;5043392;28;20046;-73
2023/10/29 06:17:21;;;;;;;7.07;3.60;;;;;;;;;;5024717;28;20060;-73
2023/10/29 06:19:55;;;;;;;10.13;3.03;;;;;;;;;;5043144;28;21149;-72
2023/10/29 06:22:27;;;;;;;5.55;3.25;;;;;;;;;;5043823;28;20060;-73
2023/10/29 06:24:57;;;;;;;6.13;3.10;;;;;;;;;;5024121;28;20055;-73
2023/10/29 06:27:28;;;;;;;8.25;3.22;;;;;;;;;;5042956;28;20531;-73
2023/10/29 06:29:57;;;;;;;7.18;3.10;;;;;;;;;;5042605;28;20053;-73
2023/10/29 06:32:28;;;;;;;6.95;3.42;;;;;;;;;;5042262;28;20044;-73
2023/10/29 06:34:59;;;;;;;10.43;3.25;;;;;;;;;;5042789;28;20037;-73
2023/10/29 06:37:30;;;;;;;6.47;3.30;;;;;;;;;;5042660;28;20049;-73
2023/10/29 06:40:03;;;;;;;6.60;3.17;;;;;;;;;;5042233;28;20399;-72
2023/10/29 06:42:33;;;;;;;5.20;3.42;;;;;;;;;;5042541;28;20491;-72
2023/10/29 06:45:04;;;;;;;7.15;3.58;;;;;;;;;;5042620;28;20068;-73
2023/10/29 06:47:35;;;;;;;5.30;3.58;;;;;;;;;;5043041;28;20049;-72
2023/10/29 06:50:06;;;;;;;6.20;3.40;;;;;;;;;;5042589;28;20368;-73
2023/10/29 06:52:37;;;;;;;10.00;3.67;;;;;;;;;;5042817;28;20041;-73
2023/10/29 06:55:08;;;;;;;6.97;3.63;;;;;;;;;;5042251;28;20071;-73
2023/10/29 06:57:40;;;;;;;6.57;3.67;;;;;;;;;;5042326;28;20033;-72
2023/10/29 07:00:10;;;;;;;9.20;4.20;;;;;;;;;;5042816;28;20661;-72
2023/10/29 07:02:41;;;;;;;7.10;3.90;;;;;;;;;;5041455;28;20518;-73
2023/10/29 07:05:11;;;;;;;7.85;4.85;;;;;;;;;;5041905;28;20528;-73
2023/10/29 07:07:42;;;;;;;8.40;4.70;;;;;;;;;;5042214;28;20373;-72
2023/10/29 07:10:13;;;;;;;9.48;4.80;;;;;;;;;;5042419;28;20052;-72
2023/10/29 07:12:43;;;;;;;10.32;5.50;;;;;;;;;;5042466;28;20049;-73
2023/10/29 07:15:14;;;;;;;11.35;5.40;;;;;;;;;;5041934;28;20049;-73
2023/10/29 07:17:45;;;;;;;11.43;5.88;;;;;;;;;;5042223;28;20068;-72
2023/10/29 07:20:16;;;;;;;12.38;5.57;;;;;;;;;;5041812;28;20044;-72
2023/10/29 07:22:46;;;;;;;10.68;5.75;;;;;;;;;;5042361;28;20052;-73
2023/10/29 07:25:16;;;;;;;10.38;5.82;;;;;;;;;;5041960;28;20052;-73
2023/10/29 07:27:47;;;;;;;11.35;5.38;;;;;;;;;;5042094;28;20040;-72
2023/10/29 07:30:18;;;;;;;13.00;5.43;;;;;;;;;;5042055;28;20047;-72
2023/10/29 07:32:49;;;;;;;10.95;5.43;;;;;;;;;;5042026;28;20542;-73
2023/10/29 07:35:20;;;;;;;12.23;5.82;;;;;;;;;;5042330;28;20045;-72
2023/10/29 07:37:51;;;;;;;11.20;5.20;;;;;;;;;;5042246;28;20399;-73
2023/10/29 07:40:22;;;;;;;13.00;5.10;;;;;;;;;;5042915;28;20049;-73
2023/10/29 07:42:53;;;;;;;7.80;4.50;;;;;;;;;;5042021;28;20045;-72
2023/10/29 07:45:23;;;;;;;8.25;4.30;;;;;;;;;;5041420;28;20052;-73
2023/10/29 07:47:54;;;;;;;11.38;4.60;;;;;;;;;;5023874;28;20053;-72
2023/10/29 07:50:25;;;;;;;7.57;4.28;;;;;;;;;;5041653;28;20052;-72
2023/10/29 07:52:56;;;;;;;10.80;4.40;;;;;;;;;;5041521;28;20065;-72
2023/10/29 07:55:26;;;;;;;8.07;4.05;;;;;;;;;;5041367;28;20041;-74
2023/10/29 07:58:00;;;;;;;9.20;4.55;;;;;;;;;;5042026;28;20049;-75
2023/10/29 08:00:30;;;;;;;8.52;4.53;;;;;;;;;;5041426;28;20475;-74
2023/10/29 08:03:00;;;;;;;8.32;4.03;;;;;;;;;;5041670;28;21125;-71
2023/10/29 08:05:31;;;;;;;8.25;4.32;;;;;;;;;;5022437;28;20072;-72
2023/10/29 08:08:05;;;;;;;7.60;4.07;;;;;;;;;;5041871;28;20048;-74
2023/10/29 08:10:37;;;;;;;10.38;4.15;;;;;;;;;;5041939;28;20391;-72
2023/10/29 08:13:10;;;;;;;5.72;3.60;;;;;;;;;;5042331;28;20045;-71
2023/10/29 08:15:40;;;;;;;7.93;4.40;;;;;;;;;;5041805;28;20053;-73
2023/10/29 08:18:12;;;;;;;10.65;4.63;;;;;;;;;;5023083;28;20053;-72
2023/10/29 08:20:44;;;;;;;7.55;4.15;;;;;;;;;;5041968;28;20053;-72
2023/10/29 08:23:14;;;;;;;7.97;4.15;;;;;;;;;;5041726;28;20041;-71
2023/10/29 08:25:45;;;;;;;7.90;4.00;;;;;;;;;;5041413;28;20871;-73
2023/10/29 08:28:15;;;;;;;8.48;4.15;;;;;;;;;;5026171;28;20099;-73
2023/10/29 08:30:48;;;;;;;10.77;4.25;;;;;;;;;;5027588;28;20049;-73
2023/10/29 08:33:19;;;;;;;10.18;4.13;;;;;;;;;;5045062;28;20056;-73
2023/10/29 08:35:50;;;;;;;10.15;4.07;;;;;;;;;;5045279;28;20056;-72
2023/10/29 08:38:20;;;;;;;8.05;3.72;;;;;;;;;;5045013;28;20060;-73
2023/10/29 08:40:52;;;;;;;7.22;3.75;;;;;;;;;;5042327;28;20041;-72
2023/10/29 08:43:23;;;;;;;7.65;4.40;;;;;;;;;;5042529;28;21126;-73
2023/10/29 08:45:54;;;;;;;8.57;3.88;;;;;;;;;;5042207;28;20045;-73
2023/10/29 08:48:25;;;;;;;8.02;4.45;;;;;;;;;;5041928;28;20053;-71
2023/10/29 08:50:55;;;;;;;8.32;4.43;;;;;;;;;;5042156;28;20045;-72
2023/10/29 08:53:25;;;;;;;8.10;4.43;;;;;;;;;;5041858;28;20045;-72
2023/10/29 08:55:56;;;;;;;7.68;4.47;;;;;;;;;;5042032;28;20045;-72
2023/10/29 08:58:27;;;;;;;12.40;4.45;;;;;;;;;;5042025;28;20045;-73
2023/10/29 09:00:57;;;;;;;9.93;3.78;;;;;;;;;;5041567;28;20829;-73
2023/10/29 09:03:28;;;;;;;9.27;3.95;;;;;;;;;;5041488;28;20059;-71
2023/10/29 09:06:06;;;;;;;7.60;4.03;;;;;;;;;;5041732;28;20045;-72
2023/10/29 09:08:37;;;;;;;6.50;3.83;;;;;;;;;;5041311;28;20045;-72
2023/10/29 09:11:16;;;;;;;7.60;3.95;;;;;;;;;;5041533;28;20044;-72
2023/10/29 09:13:46;;;;;;;8.43;4.30;;;;;;;;;;5041625;28;20048;-72
2023/10/29 09:16:16;;;;;;;8.93;4.22;;;;;;;;;;5041005;28;20045;-72
2023/10/29 09:18:48;;;;;;;9.15;4.32;;;;;;;;;;5040641;28;20045;-72
2023/10/29 09:21:18;;;;;;;10.40;4.57;;;;;;;;;;5042127;28;20044;-73
2023/10/29 09:23:48;;;;;;;9.52;4.05;;;;;;;;;;5041472;28;20049;-72
2023/10/29 09:26:19;;;;;;;7.55;4.25;;;;;;;;;;5041381;28;20041;-73
2023/10/29 09:28:50;;;;;;;8.90;3.88;;;;;;;;;;5041283;28;20526;-74
2023/10/29 09:31:20;;;;;;;11.57;4.05;;;;;;;;;;5041515;28;20047;-72
2023/10/29 09:33:51;;;;;;;7.88;3.58;;;;;;;;;;5024100;28;20041;-73
2023/10/29 09:36:22;;;;;;;6.57;4.07;;;;;;;;;;5022851;28;20345;-73
2023/10/29 09:38:53;;;;;;;9.82;3.70;;;;;;;;;;5041673;28;20049;-71
2023/10/29 09:41:23;;;;;;;7.50;3.80;;;;;;;;;;5040619;28;20048;-72
2023/10/29 09:43:56;;;;;;;10.90;3.95;;;;;;;;;;5040823;28;20144;-72
2023/10/29 09:46:30;;;;;;;7.57;3.53;;;;;;;;;;5040593;28;20041;-73
2023/10/29 09:49:01;;;;;;;6.28;3.58;;;;;;;;;;5041389;28;20052;-72
2023/10/29 09:51:32;;;;;;;6.88;3.58;;;;;;;;;;5040845;28;20048;-73
2023/10/29 09:54:04;;;;;;;5.03;3.58;;;;;;;;;;5040800;28;20048;-73
2023/10/29 09:56:37;;;;;;;6.40;3.45;;;;;;;;;;5022419;28;20056;-72
2023/10/29 09:59:09;;;;;;;6.53;3.60;;;;;;;;;;5040976;28;20053;-74
2023/10/29 10:01:39;;;;;;;8.40;3.50;;;;;;;;;;5040667;28;20041;-72
2023/10/29 10:04:26;;;;;;;10.05;3.53;;;;;;;;;;5040586;28;20045;-72
2023/10/29 10:06:59;;;;;;;8.18;3.30;;;;;;;;;;5040620;28;20040;-72
2023/10/29 10:09:57;;;;;;;10.48;3.78;;;;;;;;;;5040200;28;20036;-72
2023/10/29 10:12:28;;;;;;;6.22;3.38;;;;;;;;;;5040279;28;20049;-73
2023/10/29 10:15:07;;;;;;;7.88;3.67;;;;;;;;;;5040130;28;20037;-72
2023/10/29 10:17:38;;;;;;;5.55;3.30;;;;;;;;;;5021281;28;20500;-73
2023/10/29 10:20:11;;;;;;;6.43;3.00;;;;;;;;;;5040325;28;20052;-73
2023/10/29 10:22:43;;;;;;;6.45;2.85;;;;;;;;;;5040030;28;20053;-73
2023/10/29 10:25:19;;;;;;;5.68;3.33;;;;;;;;;;5039781;28;20049;-74
2023/10/29 10:27:52;;;;;;;5.45;3.25;;;;;;;;;;5040238;28;20052;-73
2023/10/29 10:30:30;;;;;;;8.25;3.30;;;;;;;;;;5040772;28;20049;-72
2023/10/29 10:33:14;;;;;;;5.45;2.85;;;;;;;;;;5040335;28;20037;-74
2023/10/29 10:35:54;;;;;;;6.90;2.90;;;;;;;;;;5039899;28;20052;-73
2023/10/29 10:38:25;;;;;;;4.60;2.58;;;;;;;;;;5039670;28;20041;-73
2023/10/29 10:40:59;;;;;;;5.05;2.90;;;;;;;;;;5040309;28;20056;-74
2023/10/29 10:43:30;;;;;;;5.40;2.95;;;;;;;;;;5040372;28;20419;-72
2023/10/29 10:46:02;;;;;;;6.63;3.30;;;;;;;;;;5040076;28;20048;-73
2023/10/29 10:48:37;;;;;;;7.22;2.95;;;;;;;;;;5052683;28;20040;-71
2023/10/29 10:51:11;;;;;;;6.53;2.83;;;;;;;;;;5059138;28;20110;-74
2023/10/29 10:53:44;;;;;;;8.65;2.88;;;;;;;;;;5059963;28;20040;-72
2023/10/29 10:56:15;;;;;;;8.32;2.83;;;;;;;;;;5059466;28;20045;-73
2023/10/29 10:58:46;;;;;;;17.05;3.05;;;;;;;;;;5059194;28;20044;-73
2023/10/29 11:01:18;;;;;;;6.72;3.75;;;;;;;;;;5059982;28;20056;-73
2023/10/29 11:03:49;;;;;;;9.77;3.03;;;;;;;;;;5059619;28;20040;-73
2023/10/29 11:06:21;;;;;;;10.23;2.92;;;;;;;;;;5059713;28;20040;-73
2023/10/29 11:08:54;;;;;;;7.90;2.63;;;;;;;;;;5059970;28;20056;-73
2023/10/29 11:11:40;;;;;;;8.18;2.85;;;;;;;;;;5059467;28;20769;-74
2023/10/29 11:14:18;;;;;;;7.35;2.88;;;;;;;;;;5059411;28;20048;-73
2023/10/29 11:16:51;;;;;;;11.38;2.40;;;;;;;;;;5041501;28;20130;-73
2023/10/29 11:19:39;;;;;;;5.55;2.85;;;;;;;;;;5059223;28;20065;-73
2023/10/29 11:22:22;;;;;;;4.72;2.58;;;;;;;;;;5059206;28;20055;-74
2023/10/29 11:25:14;;;;;;;7.10;2.97;;;;;;;;;;5059454;28;20056;-72
2023/10/29 11:27:46;;;;;;;5.22;3.00;;;;;;;;;;5058974;28;20051;-73
2023/10/29 11:30:21;;;;;;;5.50;2.60;;;;;;;;;;5059256;28;20052;-73
2023/10/29 11:33:08;;;;;;;4.55;2.40;;;;;;;;;;5059262;28;20051;-73
2023/10/29 11:35:40;;;;;;;4.45;2.60;;;;;;;;;;5062121;28;20356;-73
2023/10/29 11:38:29;;;;;;;3.97;2.63;;;;;;;;;;5062063;28;20052;-74
2023/10/29 11:41:20;;;;;;;5.07;2.90;;;;;;;;;;5062109;28;20491;-73
2023/10/29 11:44:22;;;;;;;6.13;3.63;;;;;;;;;;5062525;28;20041;-73
2023/10/29 11:46:56;;;;;;;4.78;2.83;;;;;;;;;;5062078;28;20075;-73
2023/10/29 11:49:27;;;;;;;7.50;2.88;;;;;;;;;;5061859;28;20603;-73
2023/10/29 11:52:01;;;;;;;7.72;2.95;;;;;;;;;;5062046;28;20048;-73
2023/10/29 11:54:33;;;;;;;5.30;2.70;;;;;;;;;;5062337;28;20051;-73
2023/10/29 11:57:08;;;;;;;4.45;2.63;;;;;;;;;;5061981;28;20370;-77
2023/10/29 11:59:55;;;;;;;3.72;2.25;;;;;;;;;;5061956;28;20049;-74
2023/10/29 12:02:27;;;;;;;3.35;2.35;;;;;;;;;;5063897;28;20585;-74
2023/10/29 12:04:58;;;;;;;6.15;2.78;;;;;;;;;;5065842;28;20413;-73
2023/10/29 12:07:29;;;;;;;5.03;2.88;;;;;;;;;;5047532;28;20633;-75
2023/10/29 12:10:02;;;;;;;4.65;2.47;;;;;;;;;;5065194;28;20055;-76
2023/10/29 12:12:34;;;;;;;4.53;2.80;;;;;;;;;;5064876;28;20051;-74
2023/10/29 12:15:07;;;;;;;3.78;2.03;;;;;;;;;;5065273;28;20537;-78
2023/10/29 12:17:46;;;;;;;5.32;2.40;;;;;;;;;;5065917;28;20037;-79
2023/10/29 12:20:25;;;;;;;4.30;2.60;;;;;;;;;;5065515;28;20041;-73
2023/10/29 12:22:57;;;;;;;3.97;2.42;;;;;;;;;;5065169;28;20036;-74
2023/10/29 12:25:30;;;;;;;5.35;2.58;;;;;;;;;;5065212;28;20398;-74
2023/10/29 12:28:01;;;;;;;4.20;2.22;;;;;;;;;;5064842;28;20047;-72
2023/10/29 12:30:39;;;;;;;3.30;2.15;;;;;;;;;;5064896;28;20041;-74
2023/10/29 12:33:22;;;;;;;7.85;2.33;;;;;;;;;;5066123;28;20036;-75
2023/10/29 12:35:56;;;;;;;3.28;2.08;;;;;;;;;;5065090;28;20376;-74
2023/10/29 12:38:27;;;;;;;4.22;2.03;;;;;;;;;;5064567;28;20040;-74
2023/10/29 12:41:14;;;;;;;4.07;2.53;;;;;;;;;;5064755;28;20440;-75
2023/10/29 12:43:47;;;;;;;5.88;2.15;;;;;;;;;;5064459;28;20045;-73
2023/10/29 12:46:26;;;;;;;4.93;2.15;;;;;;;;;;5064369;28;20041;-75
2023/10/29 12:49:09;;;;;;;3.78;2.30;;;;;;;;;;5064291;28;20037;-74
2023/10/29 12:51:41;;;;;;;4.03;2.15;;;;;;;;;;5064619;28;20047;-75
2023/10/29 12:54:16;;;;;;;5.55;2.28;;;;;;;;;;5064429;28;20609;-78
2023/10/29 12:57:02;;;;;;;4.35;1.88;;;;;;;;;;5064424;28;20506;-75
2023/10/29 12:59:34;;;;;;;6.13;2.10;;;;;;;;;;5064358;28;20368;-74
2023/10/29 13:02:05;;;;;;;4.13;2.15;;;;;;;;;;5046047;28;20051;-73
2023/10/29 13:04:37;;;;;;;5.65;2.10;;;;;;;;;;5065428;28;20055;-74
2023/10/29 13:07:08;;;;;;;4.18;1.80;;;;;;;;;;5044568;28;20506;-75
2023/10/29 13:09:40;;;;;;;3.65;1.90;;;;;;;;;;5043998;28;20499;-76
2023/10/29 13:12:11;;;;;;;4.38;2.92;;;;;;;;;;5043280;28;20045;-73
2023/10/29 13:14:45;;;;;;;3.00;1.83;;;;;;;;;;5043882;28;20032;-75
2023/10/29 13:17:16;;;;;;;5.80;2.60;;;;;;;;;;5044580;28;20049;-73
2023/10/29 13:19:47;;;;;;;7.00;2.50;;;;;;;;;;5058355;28;20049;-76
2023/10/29 13:22:18;;;;;;;6.72;1.80;;;;;;;;;;5065338;28;20045;-75
2023/10/29 13:24:48;;;;;;;3.75;1.92;;;;;;;;;;5065179;28;20515;-72
2023/10/29 13:27:20;;;;;;;3.28;1.83;;;;;;;;;;5063505;28;20033;-78
2023/10/29 13:29:51;;;;;;;2.08;1.48;;;;;;;;;;5063649;28;20037;-73
2023/10/29 13:32:22;;;;;;;4.32;2.00;;;;;;;;;;5063589;28;20102;-73
2023/10/29 13:34:53;;;;;;;3.35;1.75;;;;;;;;;;5045325;28;20052;-76
2023/10/29 13:37:26;;;;;;;2.55;1.75;;;;;;;;;;5064261;28;20040;-78
2023/10/29 13:39:58;;;;;;;3.30;2.10;;;;;;;;;;5063370;28;20491;-79
2023/10/29 13:42:28;;;;;;;2.40;1.70;;;;;;;;;;5063361;28;20049;-76
2023/10/29 13:44:58;;;;;;;3.05;1.98;;;;;;;;;;5063374;28;20048;-77
2023/10/29 13:47:28;;;;;;;3.40;2.05;;;;;;;;;;5063021;28;20044;-75
2023/10/29 13:49:59;;;;;;;3.45;1.90;;;;;;;;;;5063987;28;20483;-73
2023/10/29 13:52:30;;;;;;;7.32;1.90;;;;;;;;;;5063662;28;20044;-73
2023/10/29 13:55:01;;;;;;;3.38;2.40;;;;;;;;;;5064211;28;20048;-76
2023/10/29 13:57:31;;;;;;;6.30;2.45;;;;;;;;;;5063564;28;20045;-74
2023/10/29 14:00:03;;;;;;;4.35;2.47;;;;;;;;;;5062931;28;20040;-74
2023/10/29 14:02:40;;;;;;;3.70;2.72;;;;;;;;;;5068051;28;20048;-73
2023/10/29 14:05:12;;;;;;;4.53;1.77;;;;;;;;;;5062899;28;20044;-74
2023/10/29 14:07:42;;;;;;;3.00;1.92;;;;;;;;;;5063451;28;20053;-73
2023/10/29 14:10:26;;;;;;;3.55;1.83;;;;;;;;;;5063790;28;20047;-74
2023/10/29 14:12:56;;;;;;;4.40;2.33;;;;;;;;;;5062950;28;20041;-77
2023/10/29 14:15:27;;;;;;;3.53;2.20;;;;;;;;;;5063247;28;20043;-73
2023/10/29 14:17:58;;;;;;;3.53;2.20;;;;;;;;;;5062838;28;20040;-73
2023/10/29 14:20:29;;;;;;;3.33;1.85;;;;;;;;;;5062843;28;20049;-74
2023/10/29 14:22:59;;;;;;;2.65;1.90;;;;;;;;;;5063612;28;20049;-75
2023/10/29 14:25:30;;;;;;;3.70;1.92;;;;;;;;;;5062825;28;20384;-73
2023/10/29 14:28:00;;;;;;;3.25;2.05;;;;;;;;;;5063139;28;20048;-74
2023/10/29 14:30:33;;;;;;;3.03;1.90;;;;;;;;;;5044880;28;20402;-74
2023/10/29 14:33:06;;;;;;;6.75;2.05;;;;;;;;;;5062897;28;20604;-73
2023/10/29 14:35:36;;;;;;;6.45;2.00;;;;;;;;;;5062957;28;20040;-74
2023/10/29 14:38:08;;;;;;;3.80;2.13;;;;;;;;;;5062971;28;20501;-74
2023/10/29 14:40:39;;;;;;;5.13;2.17;;;;;;;;;;5043728;28;20048;-74
2023/10/29 14:43:09;;;;;;;4.47;2.10;;;;;;;;;;5063041;28;20067;-75
2023/10/29 14:45:52;;;;;;;3.35;2.17;;;;;;;;;;5062009;28;20051;-78
2023/10/29 14:48:23;;;;;;;3.63;2.28;;;;;;;;;;5043789;28;20060;-72
2023/10/29 14:50:54;;;;;;;4.95;2.40;;;;;;;;;;5062953;28;20044;-75
2023/10/29 14:53:24;;;;;;;3.38;2.17;;;;;;;;;;5063074;28;20778;-72
2023/10/29 14:55:55;;;;;;;2.90;2.17;;;;;;;;;;5062118;28;20399;-75
2023/10/29 14:58:25;;;;;;;4.30;2.42;;;;;;;;;;5061787;28;20048;-75
2023/10/29 15:00:56;;;;;;;4.20;2.50;;;;;;;;;;5045639;28;20040;-73
2023/10/29 15:03:27;;;;;;;4.13;3.00;;;;;;;;;;5061937;28;20063;-73
2023/10/29 15:05:58;;;;;;;5.22;2.70;;;;;;;;;;5062287;28;20490;-74
2023/10/29 15:08:29;;;;;;;5.00;2.60;;;;;;;;;;5062504;28;20045;-74
2023/10/29 15:10:59;;;;;;;3.95;2.25;;;;;;;;;;5062403;28;20041;-72